Time;durP1;ratioP1;P1;durP2;ratioP2;P2;SDS_P1;SDS_P2;PMS_P1;PMS_P2;Temp;Humidity;BMP_temperature;BMP_pressure;BME280_temperature;BME280_humidity;BME280_pressure;Samples;Min_cycle;Max_cycle;Signal;HPM_P1;HPM_P2
2020/12/06 00:00:03;;;;;;;23.10;14.20;;;10.90;70.90;;;;;;4980545;28;87095;-74
2020/12/06 00:02:31;;;;;;;21.17;13.33;;;10.90;71.00;;;;;;4976124;28;87150;-74
2020/12/06 00:04:56;;;;;;;22.10;14.20;;;10.90;71.10;;;;;;4995133;28;90665;-74
2020/12/06 00:07:22;;;;;;;22.33;13.52;;;10.80;71.20;;;;;;4992304;28;88069;-74
2020/12/06 00:09:48;;;;;;;24.67;14.73;;;10.80;71.20;;;;;;4993335;28;87507;-74
2020/12/06 00:12:14;;;;;;;22.25;13.85;;;10.80;71.30;;;;;;4980145;28;88677;-74
2020/12/06 00:14:40;;;;;;;18.67;12.68;;;10.80;71.30;;;;;;4978478;28;92046;-74
2020/12/06 00:17:06;;;;;;;18.63;12.15;;;10.90;71.10;;;;;;4979758;28;87287;-74
2020/12/06 00:19:32;;;;;;;17.55;11.68;;;10.90;71.30;;;;;;4993869;28;88407;-76
2020/12/06 00:21:57;;;;;;;21.52;12.35;;;10.90;71.20;;;;;;4982572;28;91192;-75
2020/12/06 00:24:23;;;;;;;19.27;11.90;;;10.90;71.20;;;;;;4982787;28;90729;-74
2020/12/06 00:26:49;;;;;;;19.65;12.25;;;10.90;71.10;;;;;;5000141;28;86940;-74
2020/12/06 00:29:15;;;;;;;17.42;11.15;;;10.90;71.10;;;;;;4999532;28;87462;-73
2020/12/06 00:31:41;;;;;;;17.65;10.57;;;10.80;71.20;;;;;;5014674;28;91421;-74
2020/12/06 00:34:07;;;;;;;17.85;9.98;;;10.90;71.10;;;;;;5000361;28;87951;-74
2020/12/06 00:36:33;;;;;;;18.23;11.07;;;10.90;71.10;;;;;;4998178;28;88100;-74
2020/12/06 00:38:59;;;;;;;14.23;9.15;;;10.90;71.00;;;;;;4999004;28;88242;-74
2020/12/06 00:41:24;;;;;;;14.35;9.73;;;10.90;71.10;;;;;;4999545;28;91491;-74
2020/12/06 00:43:50;;;;;;;15.55;9.77;;;10.90;71.10;;;;;;5000994;28;87839;-74
2020/12/06 00:46:20;;;;;;;13.07;8.38;;;10.90;70.80;;;;;;5000632;28;86842;-73
2020/12/06 00:48:47;;;;;;;15.05;8.93;;;10.90;70.90;;;;;;4999258;28;87994;-74
2020/12/06 00:51:13;;;;;;;13.13;7.97;;;11.00;70.80;;;;;;4999218;28;91632;-74
2020/12/06 00:53:43;;;;;;;11.85;7.65;;;10.90;71.30;;;;;;4999238;28;88105;-74
2020/12/06 00:56:20;;;;;;;12.23;7.73;;;11.00;70.70;;;;;;4999743;28;87171;-74
2020/12/06 00:58:47;;;;;;;11.63;7.43;;;11.00;70.40;;;;;;5000204;28;87133;-74
2020/12/06 01:01:15;;;;;;;11.95;7.95;;;11.10;70.30;;;;;;4981970;28;92724;-74
2020/12/06 01:03:41;;;;;;;12.00;7.88;;;11.00;70.20;;;;;;4998081;28;91280;-74
2020/12/06 01:06:07;;;;;;;12.70;8.40;;;11.10;70.10;;;;;;5001150;28;87445;-74
2020/12/06 01:08:34;;;;;;;11.60;7.78;;;11.10;70.10;;;;;;4998756;28;87721;-74
2020/12/06 01:11:00;;;;;;;10.98;7.63;;;11.00;70.10;;;;;;4999157;28;91235;-74
2020/12/06 01:13:26;;;;;;;13.98;8.55;;;11.10;70.10;;;;;;4999148;28;91152;-74
2020/12/06 01:15:52;;;;;;;12.18;7.78;;;11.10;70.00;;;;;;4997796;28;87650;-74
2020/12/06 01:18:18;;;;;;;14.75;9.00;;;11.10;70.00;;;;;;5001258;28;86395;-73
2020/12/06 01:20:44;;;;;;;14.48;8.40;;;11.10;70.00;;;;;;4998273;28;88396;-74
2020/12/06 01:23:10;;;;;;;14.18;9.57;;;11.10;70.10;;;;;;4978656;28;91213;-73
2020/12/06 01:25:36;;;;;;;10.65;8.57;;;11.10;70.10;;;;;;4974105;28;87964;-74
2020/12/06 01:28:02;;;;;;;13.15;8.57;;;11.10;70.10;;;;;;5000641;28;87330;-74
2020/12/06 01:30:28;;;;;;;13.00;8.35;;;11.10;70.10;;;;;;4999183;28;88277;-75
2020/12/06 01:32:53;;;;;;;12.13;8.40;;;11.00;70.30;;;;;;4999471;28;88412;-74
2020/12/06 01:35:19;;;;;;;12.73;8.40;;;11.10;70.20;;;;;;4999364;28;87335;-74
2020/12/06 01:37:45;;;;;;;14.82;9.88;;;11.10;70.40;;;;;;4984048;28;87760;-74
2020/12/06 01:40:11;;;;;;;13.32;8.93;;;11.10;70.40;;;;;;5015772;28;88802;-74
2020/12/06 01:42:37;;;;;;;10.98;8.98;;;11.10;70.10;;;;;;4981349;28;90983;-74
2020/12/06 01:45:03;;;;;;;12.98;8.98;;;11.10;70.20;;;;;;4982317;28;87346;-74
2020/12/06 01:47:30;;;;;;;16.20;9.70;;;11.10;69.80;;;;;;4999914;28;87240;-75
2020/12/06 01:49:57;;;;;;;16.88;10.48;;;11.10;69.60;;;;;;4981680;28;92318;-74
2020/12/06 01:52:26;;;;;;;14.90;9.80;;;11.10;69.40;;;;;;4999184;28;87748;-74
2020/12/06 01:54:53;;;;;;;16.10;10.10;;;11.10;69.40;;;;;;4984574;28;87651;-74
2020/12/06 01:57:18;;;;;;;14.95;9.60;;;11.20;69.10;;;;;;4986251;28;87130;-74
2020/12/06 01:59:45;;;;;;;15.80;10.27;;;11.20;69.10;;;;;;4981158;28;91536;-74
2020/12/06 02:02:12;;;;;;;16.02;10.40;;;11.20;68.90;;;;;;4997416;28;91199;-74
2020/12/06 02:04:39;;;;;;;16.45;10.35;;;11.20;68.80;;;;;;4998035;28;87425;-74
2020/12/06 02:07:04;;;;;;;17.27;10.45;;;11.20;68.60;;;;;;4998474;28;87290;-74
2020/12/06 02:09:31;;;;;;;18.20;10.50;;;11.20;68.40;;;;;;4997445;28;88442;-75
2020/12/06 02:11:58;;;;;;;16.50;9.95;;;11.20;68.30;;;;;;4997586;28;92161;-75
2020/12/06 02:14:24;;;;;;;17.80;10.57;;;11.20;68.20;;;;;;4998234;28;88206;-74
2020/12/06 02:16:56;;;;;;;13.93;9.23;;;11.20;68.00;;;;;;4996664;28;87950;-74
2020/12/06 02:19:22;;;;;;;16.60;9.63;;;11.20;68.10;;;;;;4999849;28;88903;-74
2020/12/06 02:21:48;;;;;;;19.95;11.50;;;11.20;67.70;;;;;;4980901;28;91582;-74
2020/12/06 02:24:16;;;;;;;15.73;10.07;;;11.20;67.60;;;;;;4997742;28;87018;-74
2020/12/06 02:26:44;;;;;;;19.38;10.88;;;11.30;67.20;;;;;;4998555;28;86942;-73
2020/12/06 02:29:11;;;;;;;16.80;10.30;;;11.30;67.10;;;;;;4997289;28;91862;-74
2020/12/06 02:31:38;;;;;;;19.48;10.93;;;11.30;66.80;;;;;;5013447;28;91150;-74
2020/12/06 02:34:05;;;;;;;17.38;10.95;;;11.30;66.70;;;;;;4998852;28;87303;-74
2020/12/06 02:36:31;;;;;;;18.95;10.90;;;11.30;66.80;;;;;;4980365;28;87210;-76
2020/12/06 02:38:57;;;;;;;18.02;11.30;;;11.30;66.70;;;;;;4996777;28;88960;-74
2020/12/06 02:41:37;;;;;;;17.80;10.68;;;11.30;66.80;;;;;;4996997;28;92576;-74
2020/12/06 02:44:04;;;;;;;19.55;11.68;;;11.30;66.70;;;;;;4992530;28;87284;-74
2020/12/06 02:46:31;;;;;;;20.08;12.30;;;11.30;66.60;;;;;;4977174;28;88165;-75
2020/12/06 02:48:58;;;;;;;18.38;11.90;;;11.30;66.70;;;;;;4944953;28;90221;-75
2020/12/06 02:51:24;;;;;;;21.23;12.63;;;11.20;66.70;;;;;;4977432;28;89249;-74
2020/12/06 02:53:50;;;;;;;19.63;11.40;;;11.20;66.80;;;;;;4976854;28;86960;-74
2020/12/06 02:56:16;;;;;;;19.40;11.90;;;11.20;66.90;;;;;;4979611;28;86245;-74
2020/12/06 02:58:41;;;;;;;21.17;12.93;;;11.20;67.00;;;;;;4960492;28;90260;-74
2020/12/06 03:01:07;;;;;;;19.02;12.27;;;11.20;67.10;;;;;;4977068;28;92828;-74
2020/12/06 03:03:33;;;;;;;22.10;13.50;;;11.20;67.00;;;;;;4978170;28;87882;-74
2020/12/06 03:05:59;;;;;;;22.13;13.65;;;11.20;67.20;;;;;;4977594;28;87820;-74
2020/12/06 03:08:25;;;;;;;21.95;13.48;;;11.10;67.20;;;;;;4974131;28;91640;-74
2020/12/06 03:10:51;;;;;;;20.73;13.13;;;11.10;67.50;;;;;;4976469;28;87461;-74
2020/12/06 03:13:17;;;;;;;23.13;12.95;;;11.10;67.60;;;;;;4977447;28;88228;-73
2020/12/06 03:15:43;;;;;;;21.27;12.55;;;11.10;67.80;;;;;;4959879;28;89627;-74
2020/12/06 03:18:09;;;;;;;23.70;13.13;;;11.10;67.80;;;;;;4960785;28;91351;-74
2020/12/06 03:20:35;;;;;;;22.60;13.50;;;11.00;68.00;;;;;;4977129;28;89399;-74
2020/12/06 03:23:01;;;;;;;23.88;12.82;;;11.00;68.30;;;;;;4978205;28;87283;-74
2020/12/06 03:25:27;;;;;;;22.67;13.07;;;10.90;68.30;;;;;;4977666;28;87658;-74
2020/12/06 03:27:52;;;;;;;23.55;13.60;;;10.90;68.30;;;;;;4977383;28;89575;-74
2020/12/06 03:30:18;;;;;;;20.65;13.18;;;10.90;68.20;;;;;;4988516;28;88792;-74
2020/12/06 03:32:44;;;;;;;24.08;14.30;;;10.90;68.40;;;;;;4995915;28;87492;-74
2020/12/06 03:35:10;;;;;;;20.98;12.98;;;10.90;68.50;;;;;;4996617;28;87313;-74
2020/12/06 03:37:36;;;;;;;24.25;14.48;;;10.80;68.60;;;;;;4997094;28;88305;-74
2020/12/06 03:40:03;;;;;;;25.58;14.65;;;10.80;68.50;;;;;;5013766;28;88345;-74
2020/12/06 03:42:29;;;;;;;23.02;12.95;;;10.80;68.60;;;;;;4979174;28;87113;-74
2020/12/06 03:44:55;;;;;;;22.67;13.52;;;10.80;68.90;;;;;;4977567;28;87820;-74
2020/12/06 03:47:21;;;;;;;22.20;13.02;;;10.80;69.10;;;;;;4980766;28;89486;-74
2020/12/06 03:49:47;;;;;;;24.52;14.45;;;10.70;69.20;;;;;;4999572;28;90982;-74
2020/12/06 03:52:13;;;;;;;18.63;12.65;;;10.70;69.30;;;;;;4999367;28;87969;-74
2020/12/06 03:54:39;;;;;;;21.90;13.23;;;10.70;69.60;;;;;;4999669;28;88144;-74
2020/12/06 03:57:05;;;;;;;20.48;12.45;;;10.70;70.00;;;;;;5000309;28;88289;-74
2020/12/06 03:59:30;;;;;;;21.75;13.35;;;10.70;70.10;;;;;;4988784;28;91823;-75
2020/12/06 04:01:56;;;;;;;19.92;12.63;;;10.70;70.20;;;;;;4980089;28;86930;-74
2020/12/06 04:04:22;;;;;;;20.63;13.25;;;10.70;70.40;;;;;;4981599;28;87298;-74
2020/12/06 04:06:48;;;;;;;23.27;13.73;;;10.70;70.60;;;;;;4980589;28;88005;-74
2020/12/06 04:09:14;;;;;;;19.10;12.70;;;10.60;70.80;;;;;;4981899;28;87470;-74
2020/12/06 04:11:40;;;;;;;20.10;12.27;;;10.60;70.90;;;;;;4979158;28;87263;-74
2020/12/06 04:14:06;;;;;;;20.95;12.25;;;10.60;70.90;;;;;;4963446;28;87842;-74
2020/12/06 04:16:32;;;;;;;20.63;12.50;;;10.60;71.00;;;;;;4978231;28;88675;-74
2020/12/06 04:18:57;;;;;;;23.20;13.73;;;10.60;70.90;;;;;;4979739;28;92299;-75
2020/12/06 04:21:24;;;;;;;21.35;12.20;;;10.60;70.80;;;;;;4979677;28;87390;-74
2020/12/06 04:23:50;;;;;;;21.00;12.80;;;10.60;70.80;;;;;;4978614;28;88099;-74
2020/12/06 04:26:16;;;;;;;19.77;12.65;;;10.60;70.90;;;;;;4962959;28;91845;-74
2020/12/06 04:28:42;;;;;;;20.45;12.60;;;10.60;70.80;;;;;;4962064;28;89404;-73
2020/12/06 04:31:07;;;;;;;19.75;12.18;;;10.60;71.60;;;;;;4998256;28;87384;-74
2020/12/06 04:33:33;;;;;;;19.98;13.32;;;10.60;70.80;;;;;;4998944;28;88134;-74
2020/12/06 04:35:59;;;;;;;20.55;13.00;;;10.60;70.80;;;;;;4999099;28;91157;-74
2020/12/06 04:38:25;;;;;;;20.00;13.05;;;10.60;70.70;;;;;;5000792;28;88077;-74
2020/12/06 04:40:51;;;;;;;18.90;12.50;;;10.70;70.70;;;;;;4997502;28;88237;-74
2020/12/06 04:43:19;;;;;;;20.90;12.43;;;10.60;70.60;;;;;;5000642;28;87592;-74
2020/12/06 04:45:48;;;;;;;18.38;11.95;;;10.60;70.70;;;;;;4980023;28;91488;-74
2020/12/06 04:48:39;;;;;;;19.55;11.98;;;10.70;70.60;;;;;;4979280;28;88576;-74
2020/12/06 04:51:07;;;;;;;20.83;12.40;;;10.70;70.40;;;;;;4962726;28;87450;-74
2020/12/06 04:53:49;;;;;;;20.38;11.93;;;10.70;70.50;;;;;;4961796;28;87798;-74
2020/12/06 04:56:18;;;;;;;23.55;12.95;;;10.70;70.30;;;;;;4979360;28;88272;-74
2020/12/06 04:58:47;;;;;;;19.92;12.23;;;10.80;70.30;;;;;;4978666;28;87513;-74
2020/12/06 05:01:14;;;;;;;19.92;11.48;;;10.80;70.00;;;;;;4978809;28;86925;-74
2020/12/06 05:03:45;;;;;;;19.63;11.90;;;10.80;69.90;;;;;;4979629;28;87060;-74
2020/12/06 05:06:14;;;;;;;17.92;11.35;;;10.80;69.80;;;;;;4978373;28;92550;-74
2020/12/06 05:08:41;;;;;;;15.57;11.73;;;10.80;69.60;;;;;;4978309;28;88786;-74
2020/12/06 05:11:07;;;;;;;15.90;10.45;;;10.90;69.60;;;;;;4978698;28;87167;-74
2020/12/06 05:13:33;;;;;;;23.00;12.55;;;10.90;69.20;;;;;;4977970;28;87105;-74
2020/12/06 05:16:05;;;;;;;18.67;10.73;;;10.90;69.10;;;;;;4979857;28;87852;-75
2020/12/06 05:18:32;;;;;;;16.38;10.90;;;11.00;69.00;;;;;;4977996;28;91265;-75
2020/12/06 05:20:57;;;;;;;17.38;11.15;;;11.00;68.90;;;;;;4978362;28;87144;-74
2020/12/06 05:23:23;;;;;;;16.55;11.65;;;11.00;68.70;;;;;;4979168;28;88084;-74
2020/12/06 05:25:50;;;;;;;16.55;10.77;;;11.00;68.70;;;;;;4977523;28;91537;-74
2020/12/06 05:28:19;;;;;;;18.67;11.45;;;11.00;68.50;;;;;;4969453;28;90997;-74
2020/12/06 05:30:45;;;;;;;17.55;11.27;;;11.00;68.50;;;;;;5001905;28;88556;-74
2020/12/06 05:33:11;;;;;;;16.17;10.40;;;11.00;68.50;;;;;;4998794;28;87290;-74
2020/12/06 05:35:41;;;;;;;19.92;11.73;;;11.00;68.50;;;;;;4998303;28;88199;-74
2020/12/06 05:38:07;;;;;;;19.48;11.10;;;11.00;68.80;;;;;;4998277;28;90290;-74
2020/12/06 05:40:44;;;;;;;20.42;12.10;;;11.00;68.80;;;;;;4997574;28;87035;-75
2020/12/06 05:43:10;;;;;;;16.92;11.43;;;10.90;68.80;;;;;;4981821;28;88360;-74
2020/12/06 05:45:37;;;;;;;18.42;11.75;;;10.90;68.90;;;;;;4997352;28;91089;-74
2020/12/06 05:48:05;;;;;;;18.70;11.38;;;10.90;68.90;;;;;;4999731;28;87590;-74
2020/12/06 05:50:32;;;;;;;17.85;11.13;;;10.90;69.20;;;;;;4997530;28;87037;-75
2020/12/06 05:52:58;;;;;;;16.48;10.63;;;10.90;69.20;;;;;;4999738;28;87089;-75
2020/12/06 05:55:25;;;;;;;19.67;12.00;;;10.90;69.20;;;;;;4998934;28;89731;-74
2020/12/06 05:57:52;;;;;;;18.05;10.88;;;10.90;69.40;;;;;;4997171;28;91748;-74
2020/12/06 06:00:18;;;;;;;18.13;11.48;;;10.80;69.20;;;;;;4997764;28;87088;-74
2020/12/06 06:02:45;;;;;;;17.27;12.05;;;10.80;69.10;;;;;;4997176;28;87293;-74
2020/12/06 06:05:16;;;;;;;25.85;13.05;;;10.80;69.00;;;;;;4979801;28;88025;-74
2020/12/06 06:07:42;;;;;;;;;;;10.80;69.00;;;;;;4989407;28;90651;-74
2020/12/06 06:10:14;;;;;;;16.70;11.32;;;10.80;69.20;;;;;;4982961;28;87208;-74
2020/12/06 06:12:44;;;;;;;18.13;11.88;;;10.70;69.60;;;;;;4997884;28;86175;-74
2020/12/06 06:15:10;;;;;;;18.33;11.82;;;10.70;69.60;;;;;;4980481;28;91568;-74
2020/12/06 06:17:38;;;;;;;21.20;12.52;;;10.70;69.70;;;;;;4998645;28;87977;-74
2020/12/06 06:20:04;;;;;;;20.50;11.90;;;10.70;69.80;;;;;;4997407;28;88170;-74
2020/12/06 06:22:39;;;;;;;19.80;11.60;;;10.70;69.60;;;;;;4997087;28;87898;-76
2020/12/06 06:25:06;;;;;;;17.52;11.73;;;10.70;69.70;;;;;;4999193;28;87942;-74
2020/12/06 06:27:37;;;;;;;18.17;12.10;;;10.80;69.60;;;;;;4998570;28;87514;-74
2020/12/06 06:30:12;;;;;;;16.33;11.15;;;10.80;69.50;;;;;;4998193;28;87442;-74
2020/12/06 06:32:39;;;;;;;19.10;11.43;;;10.90;69.50;;;;;;4980473;28;88320;-73
2020/12/06 06:35:06;;;;;;;17.95;12.20;;;10.90;69.30;;;;;;4984472;28;91042;-74
2020/12/06 06:37:34;;;;;;;20.10;10.20;;;10.90;69.20;;;;;;4978699;28;88268;-74
2020/12/06 06:40:03;;;;;;;17.92;11.65;;;11.00;69.10;;;;;;4961349;28;87055;-74
2020/12/06 06:42:30;;;;;;;15.80;10.95;;;11.00;69.00;;;;;;4962062;28;87320;-75
2020/12/06 06:45:08;;;;;;;17.08;11.13;;;11.00;69.10;;;;;;4996681;28;93084;-73
2020/12/06 06:47:40;;;;;;;18.95;10.90;;;11.00;68.90;;;;;;4978924;28;89394;-74
2020/12/06 06:50:10;;;;;;;15.48;10.75;;;11.10;69.00;;;;;;4979478;28;86869;-75
2020/12/06 06:52:42;;;;;;;15.93;10.50;;;11.00;69.00;;;;;;4988691;28;86904;-74
2020/12/06 06:55:09;;;;;;;17.35;11.10;;;11.10;69.00;;;;;;5007296;28;91337;-74
2020/12/06 06:57:38;;;;;;;13.77;10.00;;;11.10;69.00;;;;;;4991629;28;88452;-74
2020/12/06 07:00:05;;;;;;;14.27;10.07;;;11.10;68.80;;;;;;4998772;28;87568;-74
2020/12/06 07:02:37;;;;;;;20.63;11.45;;;11.10;68.80;;;;;;4996715;28;88264;-76
2020/12/06 07:05:13;;;;;;;18.20;10.90;;;11.10;68.90;;;;;;4997493;28;88165;-74
2020/12/06 07:07:49;;;;;;;17.95;11.18;;;11.10;68.70;;;;;;4995678;28;88099;-74
2020/12/06 07:10:18;;;;;;;17.20;10.13;;;11.10;68.60;;;;;;4982152;28;87986;-74
2020/12/06 07:12:55;;;;;;;15.35;10.32;;;11.10;68.60;;;;;;4985286;28;87228;-74
2020/12/06 07:15:23;;;;;;;15.82;10.15;;;11.20;68.40;;;;;;4989592;28;88656;-74
2020/12/06 07:17:50;;;;;;;16.08;10.98;;;11.20;68.00;;;;;;4997021;28;91953;-74
2020/12/06 07:20:17;;;;;;;16.67;10.80;;;11.30;67.80;;;;;;5000844;28;86991;-74
2020/12/06 07:22:44;;;;;;;15.57;9.77;;;11.30;67.50;;;;;;5001709;28;88249;-74
2020/12/06 07:25:11;;;;;;;21.42;11.70;;;11.40;67.20;;;;;;5006690;28;88674;-73
2020/12/06 07:27:37;;;;;;;15.38;10.45;;;11.40;67.00;;;;;;5010469;28;88148;-74
2020/12/06 07:30:06;;;;;;;14.88;10.80;;;11.50;67.00;;;;;;5001336;28;87068;-73
2020/12/06 07:32:32;;;;;;;16.42;10.15;;;11.50;66.80;;;;;;5004780;28;87696;-73
2020/12/06 07:34:59;;;;;;;15.38;10.32;;;11.60;66.80;;;;;;5007595;28;89234;-74
2020/12/06 07:37:25;;;;;;;18.27;11.23;;;11.60;66.50;;;;;;5008291;28;88925;-74
2020/12/06 07:39:51;;;;;;;17.38;11.02;;;11.70;66.40;;;;;;4995019;28;87173;-74
2020/12/06 07:42:22;;;;;;;19.67;11.63;;;11.70;66.20;;;;;;4990146;28;87245;-74
2020/12/06 07:44:50;;;;;;;12.50;9.90;;;11.70;66.00;;;;;;4991201;28;91101;-74
2020/12/06 07:47:17;;;;;;;16.65;10.88;;;11.70;65.90;;;;;;4979207;28;92340;-73
2020/12/06 07:49:47;;;;;;;18.02;10.82;;;11.70;65.80;;;;;;4985451;28;87102;-73
2020/12/06 07:52:20;;;;;;;17.25;11.85;;;11.80;65.70;;;;;;4991883;28;86538;-73
2020/12/06 07:55:03;;;;;;;19.83;11.10;;;11.80;65.70;;;;;;4997373;28;88671;-74
2020/12/06 07:57:37;;;;;;;17.63;11.13;;;11.70;65.80;;;;;;4985226;28;87896;-74
2020/12/06 08:00:26;;;;;;;16.92;10.95;;;11.70;65.70;;;;;;5003492;28;87982;-74
2020/12/06 08:02:58;;;;;;;16.38;10.75;;;11.80;65.60;;;;;;4972745;28;88663;-73
2020/12/06 08:05:27;;;;;;;16.52;10.85;;;11.80;65.50;;;;;;4977264;28;91136;-73
2020/12/06 08:08:01;;;;;;;16.70;10.65;;;11.80;65.40;;;;;;4976826;28;91395;-74
2020/12/06 08:10:28;;;;;;;16.65;10.98;;;11.80;65.60;;;;;;4989423;28;87276;-73
2020/12/06 08:12:55;;;;;;;18.00;10.90;;;11.80;65.40;;;;;;4980705;28;88224;-75
2020/12/06 08:15:26;;;;;;;16.50;9.95;;;11.80;65.60;;;;;;4995605;28;88301;-73
2020/12/06 08:17:53;;;;;;;15.57;10.48;;;11.80;65.40;;;;;;5000542;28;88852;-73
2020/12/06 08:20:25;;;;;;;16.30;11.15;;;11.90;65.30;;;;;;4998796;28;87242;-76
2020/12/06 08:22:56;;;;;;;15.65;11.52;;;11.90;65.00;;;;;;4998556;28;88283;-75
2020/12/06 08:25:27;;;;;;;16.33;10.73;;;12.00;64.90;;;;;;4998701;28;92715;-75
2020/12/06 08:27:54;;;;;;;16.02;11.75;;;12.10;64.50;;;;;;4998478;28;92775;-75
2020/12/06 08:30:23;;;;;;;14.10;10.73;;;12.10;64.40;;;;;;5015455;28;87031;-75
2020/12/06 08:33:00;;;;;;;15.30;11.23;;;12.10;64.50;;;;;;5014847;28;87603;-75
2020/12/06 08:35:47;;;;;;;17.05;11.70;;;12.10;64.30;;;;;;4998745;28;91181;-75
2020/12/06 08:38:30;;;;;;;15.00;11.07;;;12.10;64.60;;;;;;4998923;28;87374;-77
2020/12/06 08:41:10;;;;;;;16.20;11.52;;;12.10;64.80;;;;;;4990533;28;87902;-75
2020/12/06 08:44:03;;;;;;;19.63;11.85;;;12.10;64.60;;;;;;4978517;28;86364;-76
2020/12/06 08:46:30;;;;;;;16.15;11.15;;;12.20;64.10;;;;;;4977607;28;90201;-77
2020/12/06 08:48:59;;;;;;;19.17;12.27;;;12.20;64.10;;;;;;4978706;28;91483;-76
2020/12/06 08:51:31;;;;;;;17.10;11.05;;;12.20;64.00;;;;;;4997518;28;88283;-76
2020/12/06 08:53:59;;;;;;;16.58;11.55;;;12.20;64.20;;;;;;5000246;28;86964;-76
2020/12/06 08:56:42;;;;;;;16.90;11.52;;;12.20;63.90;;;;;;4987921;28;88026;-76
2020/12/06 08:59:15;;;;;;;15.23;11.27;;;12.30;64.70;;;;;;4980213;28;87947;-75
2020/12/06 09:01:50;;;;;;;19.27;12.52;;;12.20;64.60;;;;;;4978084;28;87213;-75
2020/12/06 09:04:16;;;;;;;21.10;13.15;;;12.30;63.90;;;;;;4962186;28;87834;-76
2020/12/06 09:06:43;;;;;;;14.50;10.35;;;12.30;64.10;;;;;;4980292;28;91517;-75
2020/12/06 09:09:09;;;;;;;18.55;12.20;;;12.30;64.30;;;;;;4998353;28;91799;-75
2020/12/06 09:11:35;;;;;;;18.65;11.18;;;12.30;64.10;;;;;;5002579;28;88169;-75
2020/12/06 09:14:01;;;;;;;17.05;11.77;;;12.30;64.20;;;;;;4997122;28;88091;-75
2020/12/06 09:16:28;;;;;;;16.65;11.65;;;12.30;64.20;;;;;;5003573;28;89215;-77
2020/12/06 09:18:53;;;;;;;14.48;11.15;;;12.40;64.00;;;;;;5007033;28;88840;-75
2020/12/06 09:21:20;;;;;;;16.48;10.23;;;12.30;64.00;;;;;;5003421;28;87503;-75
2020/12/06 09:23:46;;;;;;;14.10;10.40;;;12.40;63.60;;;;;;4988171;28;88162;-75
2020/12/06 09:26:12;;;;;;;15.82;11.10;;;12.40;63.60;;;;;;5007078;28;88137;-76
2020/12/06 09:28:38;;;;;;;19.42;11.77;;;12.50;63.30;;;;;;4985478;28;92197;-75
2020/12/06 09:31:04;;;;;;;16.80;11.32;;;12.50;63.20;;;;;;5022769;28;87517;-75
2020/12/06 09:33:31;;;;;;;19.10;12.10;;;12.50;63.10;;;;;;5004175;28;88087;-76
2020/12/06 09:35:57;;;;;;;16.90;11.73;;;12.50;63.40;;;;;;4999940;28;91097;-75
2020/12/06 09:38:24;;;;;;;16.83;12.05;;;12.60;63.20;;;;;;5023677;28;87496;-75
2020/12/06 09:40:50;;;;;;;18.05;11.73;;;12.60;64.00;;;;;;5007661;28;88042;-77
2020/12/06 09:43:16;;;;;;;23.60;12.80;;;12.60;63.20;;;;;;4992751;28;88064;-76
2020/12/06 09:45:42;;;;;;;20.95;12.30;;;12.60;63.10;;;;;;4995401;28;90730;-75
2020/12/06 09:48:09;;;;;;;20.42;12.30;;;12.60;63.30;;;;;;4997437;28;88386;-75
2020/12/06 09:50:36;;;;;;;17.08;11.43;;;12.70;63.10;;;;;;4995200;28;86965;-75
2020/12/06 09:53:03;;;;;;;17.23;12.25;;;12.70;63.00;;;;;;4996071;28;87184;-76
2020/12/06 09:55:29;;;;;;;16.45;11.23;;;12.70;62.70;;;;;;4996203;28;88065;-76
2020/12/06 09:57:55;;;;;;;15.05;10.85;;;12.70;62.70;;;;;;4996093;28;88003;-75
2020/12/06 10:00:21;;;;;;;14.88;10.90;;;12.80;62.60;;;;;;4995543;28;87567;-75
2020/12/06 10:02:47;;;;;;;18.85;11.80;;;12.80;62.20;;;;;;4974161;28;87113;-75
2020/12/06 10:05:13;;;;;;;15.05;10.73;;;12.80;62.30;;;;;;4988520;28;92509;-77
2020/12/06 10:07:39;;;;;;;14.88;10.68;;;12.90;62.50;;;;;;4997543;28;91680;-81
2020/12/06 10:10:06;;;;;;;16.67;10.82;;;12.90;62.10;;;;;;4994763;28;86855;-76
2020/12/06 10:12:32;;;;;;;15.90;9.77;;;12.90;62.10;;;;;;4979337;28;87175;-76
2020/12/06 10:14:58;;;;;;;17.63;11.32;;;12.90;62.10;;;;;;4977950;28;87880;-76
2020/12/06 10:17:25;;;;;;;15.40;10.85;;;12.90;61.90;;;;;;4978879;28;87491;-80
2020/12/06 10:19:51;;;;;;;15.05;9.95;;;13.00;61.80;;;;;;4977600;28;87104;-79
2020/12/06 10:22:17;;;;;;;14.18;9.80;;;13.00;61.60;;;;;;4979065;28;86338;-80
2020/12/06 10:24:43;;;;;;;17.08;10.13;;;13.20;61.30;;;;;;5003072;28;91621;-80
2020/12/06 10:27:08;;;;;;;14.00;9.27;;;13.20;61.00;;;;;;5006655;28;87832;-80
2020/12/06 10:29:34;;;;;;;14.57;9.77;;;13.20;61.00;;;;;;5004145;28;87951;-79
2020/12/06 10:32:00;;;;;;;17.20;10.35;;;13.30;60.80;;;;;;4992666;28;87734;-80
2020/12/06 10:34:27;;;;;;;16.33;10.35;;;13.30;60.60;;;;;;4988857;28;87771;-80
2020/12/06 10:36:55;;;;;;;18.75;9.73;;;13.40;61.10;;;;;;4993365;28;91257;-79
2020/12/06 10:39:22;;;;;;;13.85;9.95;;;13.50;60.00;;;;;;4998043;28;87160;-80
2020/12/06 10:41:53;;;;;;;14.07;10.35;;;13.60;60.10;;;;;;4993770;28;88017;-80
2020/12/06 10:44:20;;;;;;;16.67;10.18;;;13.60;59.90;;;;;;4995156;28;91844;-79
2020/12/06 10:46:46;;;;;;;16.70;9.55;;;13.60;59.80;;;;;;4997166;28;88072;-80
2020/12/06 10:49:14;;;;;;;18.33;9.90;;;13.70;59.50;;;;;;5013319;28;87543;-80
2020/12/06 10:51:41;;;;;;;14.02;9.25;;;13.70;59.60;;;;;;5005214;28;88000;-80
2020/12/06 10:54:08;;;;;;;12.65;9.80;;;13.70;59.50;;;;;;4997106;28;92018;-80
2020/12/06 10:56:35;;;;;;;16.98;10.60;;;13.80;59.10;;;;;;4995186;28;88408;-79
2020/12/06 10:59:01;;;;;;;19.73;10.68;;;13.80;59.10;;;;;;5002061;28;87002;-80
2020/12/06 11:01:28;;;;;;;16.90;10.32;;;13.80;59.20;;;;;;5010064;28;87438;-79
2020/12/06 11:03:54;;;;;;;17.85;10.23;;;13.80;58.90;;;;;;5005701;28;91537;-76
2020/12/06 11:06:23;;;;;;;15.68;10.25;;;13.90;58.60;;;;;;5000206;28;91170;-79
2020/12/06 11:08:50;;;;;;;13.02;9.45;;;13.80;58.60;;;;;;5000032;28;86947;-83
2020/12/06 11:11:17;;;;;;;15.02;9.80;;;13.80;58.70;;;;;;4992995;28;88268;-84
2020/12/06 11:13:43;;;;;;;13.38;8.80;;;13.80;58.90;;;;;;4997359;28;90716;-83
2020/12/06 11:16:13;;;;;;;15.73;9.68;;;13.70;59.00;;;;;;4995286;28;87671;-83
2020/12/06 11:18:39;;;;;;;16.05;9.75;;;13.60;59.30;;;;;;5017166;28;88062;-81
2020/12/06 11:21:05;;;;;;;16.65;10.00;;;13.60;59.60;;;;;;5017484;28;87521;-81
2020/12/06 11:23:31;;;;;;;17.90;11.00;;;13.60;59.70;;;;;;4996643;28;91672;-80
2020/12/06 11:25:57;;;;;;;17.27;10.07;;;13.50;59.80;;;;;;4998090;28;91658;-80
2020/12/06 11:28:23;;;;;;;15.90;10.43;;;13.50;59.80;;;;;;5006946;28;88492;-79
2020/12/06 11:30:48;;;;;;;16.10;10.85;;;13.60;59.70;;;;;;4997136;28;87386;-80
2020/12/06 11:33:16;;;;;;;17.08;11.05;;;13.60;59.70;;;;;;4990817;28;87218;-80
2020/12/06 11:35:43;;;;;;;16.05;10.20;;;13.50;59.70;;;;;;4989262;28;89424;-80
2020/12/06 11:38:10;;;;;;;18.25;11.60;;;13.50;59.80;;;;;;4989700;28;87095;-80
2020/12/06 11:40:36;;;;;;;16.30;11.27;;;13.50;59.80;;;;;;4993145;28;87876;-80
2020/12/06 11:43:02;;;;;;;17.88;10.85;;;13.50;60.00;;;;;;4997608;28;88757;-80
2020/12/06 11:45:28;;;;;;;16.10;10.82;;;13.40;60.00;;;;;;4997666;28;87740;-80
2020/12/06 11:47:55;;;;;;;15.93;11.65;;;13.50;59.70;;;;;;4978331;28;87048;-80
2020/12/06 11:50:21;;;;;;;16.08;11.07;;;13.40;59.80;;;;;;5007787;28;87119;-80
2020/12/06 11:52:47;;;;;;;15.35;10.02;;;13.30;59.90;;;;;;4990581;28;87250;-80
2020/12/06 11:55:13;;;;;;;17.30;10.43;;;13.30;59.90;;;;;;4988583;28;88517;-80
2020/12/06 11:57:39;;;;;;;13.90;9.38;;;13.30;60.20;;;;;;4977883;28;87886;-80
2020/12/06 12:00:07;;;;;;;16.65;10.68;;;13.30;60.40;;;;;;4994542;28;86333;-80
2020/12/06 12:02:38;;;;;;;20.83;10.55;;;13.30;60.50;;;;;;4995840;28;88111;-80
2020/12/06 12:05:04;;;;;;;16.63;11.00;;;13.20;60.50;;;;;;4997320;28;91602;-81
2020/12/06 12:07:31;;;;;;;14.35;10.15;;;13.20;60.80;;;;;;4975834;28;88055;-78
2020/12/06 12:09:57;;;;;;;16.65;10.18;;;13.20;60.80;;;;;;4960168;28;88159;-82
2020/12/06 12:12:24;;;;;;;18.98;11.77;;;13.20;61.00;;;;;;4960682;28;92120;-80
2020/12/06 12:14:50;;;;;;;16.27;9.73;;;13.20;61.00;;;;;;4992356;28;88032;-80
2020/12/06 12:17:16;;;;;;;16.90;10.23;;;13.10;61.40;;;;;;4995487;28;87365;-80
2020/12/06 12:19:42;;;;;;;15.23;10.82;;;13.10;61.50;;;;;;4994928;28;87220;-81
2020/12/06 12:22:08;;;;;;;18.63;10.95;;;13.00;61.40;;;;;;5008005;28;91395;-81
2020/12/06 12:24:34;;;;;;;15.05;10.68;;;13.00;61.50;;;;;;4998216;28;87864;-77
2020/12/06 12:27:00;;;;;;;22.48;12.00;;;13.00;61.70;;;;;;4975450;28;88489;-75
2020/12/06 12:29:27;;;;;;;16.30;11.40;;;12.90;61.90;;;;;;4971582;28;87590;-77